Time;durP1;ratioP1;P1;durP2;ratioP2;P2;SDS_P1;SDS_P2;PMS_P1;PMS_P2;Temp;Humidity;BMP_temperature;BMP_pressure;BME280_temperature;BME280_humidity;BME280_pressure;Samples;Min_cycle;Max_cycle;Signal;HPM_P1;HPM_P2
2022/10/29 00:00:20;;;;;;;;;;;13.00;99.90;;;;;;5054628;28;19939;-73
2022/10/29 00:02:46;;;;;;;;;;;13.00;99.90;;;;;;5032823;28;20296;-73
2022/10/29 00:05:11;;;;;;;;;;;12.90;99.90;;;;;;5031096;28;19975;-73
2022/10/29 00:07:37;;;;;;;;;;;12.90;99.90;;;;;;5051873;28;20224;-73
2022/10/29 00:10:03;;;;;;;;;;;12.90;99.90;;;;;;5037743;28;20231;-73
2022/10/29 00:12:28;;;;;;;;;;;12.90;99.90;;;;;;5050921;28;19920;-73
2022/10/29 00:14:54;;;;;;;;;;;12.90;99.90;;;;;;5051805;28;19920;-73
2022/10/29 00:17:19;;;;;;;;;;;12.80;99.90;;;;;;5050231;28;19979;-73
2022/10/29 00:19:45;;;;;;;;;;;12.80;99.90;;;;;;5051611;28;19917;-73
2022/10/29 00:22:10;;;;;;;;;;;12.70;99.90;;;;;;5036015;28;19913;-79
2022/10/29 00:24:36;;;;;;;;;;;12.70;99.90;;;;;;5055332;28;19963;-73
2022/10/29 00:27:01;;;;;;;;;;;12.70;99.90;;;;;;5018285;28;19929;-73
2022/10/29 00:29:27;;;;;;;;;;;12.70;99.90;;;;;;5050808;28;19917;-73
2022/10/29 00:31:52;;;;;;;;;;;12.70;99.90;;;;;;5052569;28;20015;-72
2022/10/29 00:34:18;;;;;;;;;;;12.60;99.90;;;;;;5054354;28;19927;-73
2022/10/29 00:36:43;;;;;;;;;;;12.60;99.90;;;;;;5020721;28;19924;-73
2022/10/29 00:39:13;;;;;;;;;;;12.40;99.90;;;;;;5049542;28;19917;-72
2022/10/29 00:41:38;;;;;;;;;;;12.30;99.90;;;;;;5049587;28;19970;-72
2022/10/29 00:44:13;;;;;;;;;;;12.20;99.90;;;;;;5054256;28;19913;-73
2022/10/29 00:46:40;;;;;;;;;;;12.20;99.90;;;;;;5051846;28;19981;-72
2022/10/29 00:49:06;;;;;;;;;;;12.10;99.90;;;;;;5052113;28;20319;-72
2022/10/29 00:51:32;;;;;;;;;;;12.00;99.90;;;;;;5054542;28;19917;-73
2022/10/29 00:54:00;;;;;;;;;;;12.00;99.90;;;;;;5035136;28;19928;-72
2022/10/29 00:56:26;;;;;;;;;;;11.90;99.90;;;;;;5052382;28;19920;-72
2022/10/29 00:58:52;;;;;;;;;;;11.80;99.90;;;;;;5049040;28;19935;-72
2022/10/29 01:01:18;;;;;;;;;;;11.80;99.90;;;;;;5050309;28;19920;-72
2022/10/29 01:03:43;;;;;;;;;;;11.90;99.90;;;;;;5052972;28;19971;-72
2022/10/29 01:06:09;;;;;;;;;;;11.80;99.90;;;;;;5035298;28;19936;-72
2022/10/29 01:08:34;;;;;;;;;;;11.70;99.90;;;;;;5053210;28;19913;-72
2022/10/29 01:11:15;;;;;;;;;;;11.60;99.90;;;;;;5052357;28;19917;-72
2022/10/29 01:13:52;;;;;;;;;;;11.60;99.90;;;;;;5043596;28;19920;-73
2022/10/29 01:16:30;;;;;;;;;;;11.70;99.90;;;;;;5052211;28;19917;-72
2022/10/29 01:19:34;;;;;;;;;;;11.80;99.90;;;;;;5051083;28;19913;-72
2022/10/29 01:22:20;;;;;;;;;;;11.80;99.90;;;;;;4957983;28;20338;-72
2022/10/29 01:25:03;;;;;;;;;;;11.90;99.90;;;;;;4937319;28;19910;-72
2022/10/29 01:27:41;;;;;;;;;;;12.00;99.90;;;;;;5029757;28;20858;-72
2022/10/29 01:30:10;;;;;;;;;;;12.00;99.90;;;;;;5052218;28;19913;-72
2022/10/29 01:32:44;;;;;;;;;;;12.00;99.90;;;;;;5022102;28;19924;-72
2022/10/29 01:35:13;;;;;;;;;;;12.00;99.90;;;;;;5047190;28;19913;-72
2022/10/29 01:37:54;;;;;;;;;;;11.90;99.90;;;;;;5046493;28;19919;-72
2022/10/29 01:40:20;;;;;;;;;;;11.90;99.90;;;;;;5042939;28;19909;-72
2022/10/29 01:42:47;;;;;;;;;;;11.90;99.90;;;;;;5053007;28;19935;-71
2022/10/29 01:45:30;;;;;;;;;;;11.80;99.90;;;;;;5056070;28;19913;-71
2022/10/29 01:48:22;;;;;;;;;;;11.70;99.90;;;;;;5057644;28;19920;-72
2022/10/29 01:50:50;;;;;;;;;;;11.70;99.90;;;;;;5035899;28;19917;-72
2022/10/29 01:53:16;;;;;;;;;;;11.70;99.90;;;;;;5023021;28;20289;-72
2022/10/29 01:55:41;;;;;;;;;;;11.70;99.90;;;;;;5037859;28;19912;-72
2022/10/29 01:58:08;;;;;;;;;;;11.80;99.90;;;;;;5056067;28;20003;-72
2022/10/29 02:00:43;;;;;;;;;;;11.80;99.90;;;;;;5055755;28;19917;-71
2022/10/29 02:03:17;;;;;;;;;;;11.90;99.90;;;;;;5057998;28;19996;-72
2022/10/29 02:05:48;;;;;;;;;;;12.00;99.90;;;;;;5056502;28;20371;-72
2022/10/29 02:08:17;;;;;;;;;;;12.10;99.90;;;;;;5047609;28;19936;-71
2022/10/29 02:10:55;;;;;;;;;;;12.20;99.90;;;;;;5053432;28;19916;-71
2022/10/29 02:13:23;;;;;;;;;;;12.20;99.90;;;;;;5039302;28;19920;-72
2022/10/29 02:15:50;;;;;;;;;;;12.10;99.90;;;;;;5055434;28;19917;-71
2022/10/29 02:18:16;;;;;;;;;;;12.10;99.90;;;;;;5055791;28;19916;-71
2022/10/29 02:20:42;;;;;;;;;;;12.10;99.90;;;;;;5054023;28;19927;-71
2022/10/29 02:23:08;;;;;;;;;;;12.00;99.90;;;;;;5051762;28;19927;-71
2022/10/29 02:25:33;;;;;;;;;;;12.10;99.90;;;;;;5039991;28;19908;-71
2022/10/29 02:27:59;;;;;;;;;;;12.10;99.90;;;;;;5038135;28;19921;-71
2022/10/29 02:30:24;;;;;;;;;;;12.00;99.90;;;;;;5057857;28;19909;-71
2022/10/29 02:32:50;;;;;;;;;;;12.00;99.90;;;;;;5055202;28;19920;-71
2022/10/29 02:35:15;;;;;;;;;;;12.00;99.90;;;;;;5057466;28;20204;-71
2022/10/29 02:37:41;;;;;;;;;;;12.00;99.90;;;;;;5056881;28;19913;-71
2022/10/29 02:40:07;;;;;;;;;;;11.90;99.90;;;;;;5056972;28;19909;-71
2022/10/29 02:42:32;;;;;;;;;;;11.90;99.90;;;;;;5054875;28;19944;-72
2022/10/29 02:44:58;;;;;;;;;;;11.90;99.90;;;;;;5038912;28;20373;-70
2022/10/29 02:47:23;;;;;;;;;;;11.90;99.90;;;;;;5056109;28;19956;-70
2022/10/29 02:49:49;;;;;;;;;;;11.90;99.90;;;;;;5056700;28;20004;-71
2022/10/29 02:52:14;;;;;;;;;;;11.80;99.90;;;;;;5051849;28;19968;-71
2022/10/29 02:54:40;;;;;;;;;;;11.70;99.90;;;;;;5043903;28;19966;-70
2022/10/29 02:57:05;;;;;;;;;;;11.70;99.90;;;;;;5063150;28;19913;-71
2022/10/29 02:59:31;;;;;;;;;;;11.70;99.90;;;;;;5039125;28;19928;-70
2022/10/29 03:01:56;;;;;;;;;;;11.70;99.90;;;;;;5055631;28;19963;-70
2022/10/29 03:04:22;;;;;;;;;;;11.80;99.90;;;;;;5055632;28;19917;-71
2022/10/29 03:06:47;;;;;;;;;;;11.80;99.90;;;;;;5055545;28;19940;-70
2022/10/29 03:09:13;;;;;;;;;;;11.80;99.90;;;;;;5056394;28;19958;-71
2022/10/29 03:11:38;;;;;;;;;;;11.80;99.90;;;;;;5053239;28;19939;-70
2022/10/29 03:14:04;;;;;;;;;;;11.80;99.90;;;;;;5056098;28;19909;-70
2022/10/29 03:16:30;;;;;;;;;;;11.70;99.90;;;;;;5038994;28;19908;-70
2022/10/29 03:18:55;;;;;;;;;;;11.70;99.90;;;;;;5026776;28;20011;-70
2022/10/29 03:21:21;;;;;;;;;;;11.70;99.90;;;;;;5054815;28;19913;-70
2022/10/29 03:23:46;;;;;;;;;;;11.70;99.90;;;;;;5056538;28;20300;-70
2022/10/29 03:26:12;;;;;;;;;;;11.60;99.90;;;;;;5037942;28;19913;-70
2022/10/29 03:28:37;;;;;;;;;;;11.60;99.90;;;;;;5055594;28;19942;-70
2022/10/29 03:31:03;;;;;;;;;;;11.50;99.90;;;;;;5053314;28;19920;-70
2022/10/29 03:33:28;;;;;;;;;;;11.50;99.90;;;;;;5052497;28;19912;-70
2022/10/29 03:35:57;;;;;;;;;;;11.50;99.90;;;;;;5037864;28;19948;-70
2022/10/29 03:38:23;;;;;;;;;;;11.60;99.90;;;;;;5054890;28;19917;-70
2022/10/29 03:40:48;;;;;;;;;;;11.70;99.90;;;;;;5054798;28;19958;-70
2022/10/29 03:43:14;;;;;;;;;;;11.80;99.90;;;;;;5055489;28;20212;-70
2022/10/29 03:45:39;;;;;;;;;;;11.90;99.90;;;;;;5055484;28;19917;-70
2022/10/29 03:48:05;;;;;;;;;;;11.90;99.90;;;;;;5054455;28;19923;-70
2022/10/29 03:50:31;;;;;;;;;;;11.80;99.90;;;;;;5038198;28;19909;-70
2022/10/29 03:52:56;;;;;;;;;;;11.80;99.90;;;;;;5051511;28;19964;-70
2022/10/29 03:55:22;;;;;;;;;;;11.80;99.90;;;;;;5053479;28;19932;-70
2022/10/29 03:57:47;;;;;;;;;;;11.80;99.90;;;;;;5046738;28;19923;-70
2022/10/29 04:00:13;;;;;;;;;;;11.80;99.90;;;;;;5055546;28;19913;-70
2022/10/29 04:02:39;;;;;;;;;;;11.80;99.90;;;;;;5051855;28;19916;-70
2022/10/29 04:05:04;;;;;;;;;;;11.70;99.90;;;;;;5051895;28;19913;-70
2022/10/29 04:07:30;;;;;;;;;;;11.70;99.90;;;;;;5055781;28;20378;-70
2022/10/29 04:09:55;;;;;;;;;;;11.70;99.90;;;;;;5054471;28;19955;-70
2022/10/29 04:12:21;;;;;;;;;;;11.80;99.90;;;;;;5053732;28;19948;-70
2022/10/29 04:14:47;;;;;;;;;;;11.80;99.90;;;;;;5055433;28;20439;-70
2022/10/29 04:17:12;;;;;;;;;;;11.90;99.90;;;;;;5055125;28;19920;-70
2022/10/29 04:19:38;;;;;;;;;;;12.00;99.90;;;;;;5053207;28;19944;-70
2022/10/29 04:22:03;;;;;;;;;;;12.00;99.90;;;;;;5054867;28;19962;-70
2022/10/29 04:24:29;;;;;;;;;;;12.10;99.90;;;;;;5067348;28;19912;-70
2022/10/29 04:26:54;;;;;;;;;;;12.10;99.90;;;;;;5073722;28;19919;-70
2022/10/29 04:29:20;;;;;;;;;;;12.10;99.90;;;;;;5068132;28;19917;-70
2022/10/29 04:31:46;;;;;;;;;;;12.10;99.90;;;;;;5071374;28;19999;-70
2022/10/29 04:34:11;;;;;;;;;;;12.00;99.90;;;;;;5056809;28;20307;-70
2022/10/29 04:36:37;;;;;;;;;;;12.00;99.90;;;;;;5049287;28;19917;-70
2022/10/29 04:39:03;;;;;;;;;;;12.10;99.90;;;;;;5067238;28;19920;-70
2022/10/29 04:41:28;;;;;;;;;;;12.10;99.90;;;;;;5051154;28;19951;-70
2022/10/29 04:43:54;;;;;;;;;;;12.00;99.90;;;;;;5068762;28;19913;-70
2022/10/29 04:46:19;;;;;;;;;;;12.00;99.90;;;;;;5073439;28;19909;-70
2022/10/29 04:48:45;;;;;;;;;;;12.00;99.90;;;;;;5073247;28;19909;-70
2022/10/29 04:51:20;;;;;;;;;;;12.10;99.90;;;;;;5069663;28;19919;-70
2022/10/29 04:53:45;;;;;;;;;;;12.10;99.90;;;;;;5064714;28;19909;-70
2022/10/29 04:56:11;;;;;;;;;;;12.10;99.90;;;;;;5070194;28;20296;-70
2022/10/29 04:58:36;;;;;;;;;;;12.10;99.90;;;;;;5070995;28;20289;-70
2022/10/29 05:01:03;;;;;;;;;;;12.20;99.90;;;;;;5067217;28;20283;-70
2022/10/29 05:03:29;;;;;;;;;;;12.20;99.90;;;;;;5053829;28;19942;-70
2022/10/29 05:05:55;;;;;;;;;;;12.20;99.90;;;;;;5066668;28;19912;-70
2022/10/29 05:08:20;;;;;;;;;;;12.30;99.90;;;;;;5062999;28;19926;-70
2022/10/29 05:10:46;;;;;;;;;;;12.30;99.90;;;;;;5059618;28;19919;-70
2022/10/29 05:13:12;;;;;;;;;;;12.30;99.90;;;;;;5059965;28;19909;-70
2022/10/29 05:15:38;;;;;;;;;;;12.30;99.90;;;;;;5050380;28;19917;-70
2022/10/29 05:18:04;;;;;;;;;;;12.30;99.90;;;;;;5044351;28;19909;-70
2022/10/29 05:20:29;;;;;;;;;;;12.30;99.90;;;;;;5052472;28;19928;-70
2022/10/29 05:23:02;;;;;;;;;;;12.30;99.90;;;;;;5054537;28;19948;-70
2022/10/29 05:25:28;;;;;;;;;;;12.30;99.90;;;;;;5054608;28;19920;-70
2022/10/29 05:28:04;;;;;;;;;;;12.30;99.90;;;;;;5053105;28;20028;-70
2022/10/29 05:30:30;;;;;;;;;;;12.30;99.90;;;;;;5052470;28;19917;-70
2022/10/29 05:32:56;;;;;;;;;;;12.30;99.90;;;;;;5053488;28;19954;-70
2022/10/29 05:35:21;;;;;;;;;;;12.30;99.90;;;;;;5054348;28;19916;-70
2022/10/29 05:37:54;;;;;;;;;;;12.30;99.90;;;;;;5051060;28;19921;-70
2022/10/29 05:40:22;;;;;;;;;;;12.30;99.90;;;;;;5048389;28;19924;-70
2022/10/29 05:42:48;;;;;;;;;;;12.30;99.90;;;;;;5054698;28;19924;-70
2022/10/29 05:45:14;;;;;;;;;;;12.30;99.90;;;;;;5053778;28;19909;-70
2022/10/29 05:47:40;;;;;;;;;;;12.30;99.90;;;;;;5054616;28;19912;-70
2022/10/29 05:50:05;;;;;;;;;;;12.30;99.90;;;;;;5050841;28;20360;-70
2022/10/29 05:52:31;;;;;;;;;;;12.30;99.90;;;;;;5054246;28;19994;-70
2022/10/29 05:54:57;;;;;;;;;;;12.30;99.90;;;;;;5053742;28;19913;-70
2022/10/29 05:57:22;;;;;;;;;;;12.30;99.90;;;;;;5054193;28;20320;-70
2022/10/29 05:59:48;;;;;;;;;;;12.30;99.90;;;;;;5051454;28;20332;-70
2022/10/29 06:02:13;;;;;;;;;;;12.30;99.90;;;;;;5052810;28;19967;-70
2022/10/29 06:04:39;;;;;;;;;;;12.30;99.90;;;;;;5054385;28;19908;-70
2022/10/29 06:07:04;;;;;;;;;;;12.30;99.90;;;;;;5048988;28;19924;-70
2022/10/29 06:09:30;;;;;;;;;;;12.20;99.90;;;;;;5042439;28;19909;-70
2022/10/29 06:11:55;;;;;;;;;;;12.20;99.90;;;;;;5050950;28;20312;-70
2022/10/29 06:14:21;;;;;;;;;;;12.20;99.90;;;;;;5054174;28;19916;-70
2022/10/29 06:16:46;;;;;;;;;;;12.30;99.90;;;;;;5054072;28;19915;-70
2022/10/29 06:19:12;;;;;;;;;;;12.40;99.90;;;;;;5052404;28;20011;-70
2022/10/29 06:21:37;;;;;;;;;;;12.40;99.90;;;;;;5052410;28;20278;-70
2022/10/29 06:24:03;;;;;;;;;;;12.40;99.90;;;;;;5036488;28;19913;-70
2022/10/29 06:26:29;;;;;;;;;;;12.40;99.90;;;;;;5052573;28;19919;-70
2022/10/29 06:28:54;;;;;;;;;;;12.40;99.90;;;;;;5055126;28;20346;-70
2022/10/29 06:31:20;;;;;;;;;;;12.40;99.90;;;;;;5054946;28;19920;-70
2022/10/29 06:33:45;;;;;;;;;;;12.40;99.90;;;;;;5061568;28;19967;-70
2022/10/29 06:36:11;;;;;;;;;;;12.40;99.90;;;;;;5062517;28;20241;-70
2022/10/29 06:38:36;;;;;;;;;;;12.40;99.90;;;;;;5027664;28;20055;-70
2022/10/29 06:41:02;;;;;;;;;;;12.50;99.90;;;;;;5057908;28;19924;-70
2022/10/29 06:43:27;;;;;;;;;;;12.40;99.90;;;;;;5032584;28;19939;-70
2022/10/29 06:45:53;;;;;;;;;;;12.50;99.90;;;;;;5063622;28;19913;-70
2022/10/29 06:48:18;;;;;;;;;;;12.50;99.90;;;;;;5065940;28;19947;-71
2022/10/29 06:50:44;;;;;;;;;;;12.50;99.90;;;;;;5057067;28;19988;-70
2022/10/29 06:53:13;;;;;;;;;;;12.40;99.90;;;;;;5045119;28;19913;-70
2022/10/29 06:55:39;;;;;;;;;;;12.50;99.90;;;;;;5062998;28;19924;-70
2022/10/29 06:58:05;;;;;;;;;;;12.50;99.90;;;;;;5061612;28;19921;-70
2022/10/29 07:00:31;;;;;;;;;;;12.50;99.90;;;;;;5064423;28;20274;-70
2022/10/29 07:02:57;;;;;;;;;;;12.50;99.90;;;;;;5066808;28;19918;-70
2022/10/29 07:05:23;;;;;;;;;;;12.60;99.90;;;;;;5039458;28;19999;-70
2022/10/29 07:07:53;;;;;;;;;;;12.60;99.90;;;;;;5066222;28;19920;-70
2022/10/29 07:10:18;;;;;;;;;;;12.60;99.90;;;;;;5069134;28;19961;-70
2022/10/29 07:12:44;;;;;;;;;;;12.60;99.90;;;;;;5066045;28;19916;-70
2022/10/29 07:15:10;;;;;;;;;;;12.60;99.90;;;;;;5071911;28;19991;-70
2022/10/29 07:17:36;;;;;;;;;;;12.60;99.90;;;;;;5066817;28;20211;-70
2022/10/29 07:20:02;;;;;;;;;;;12.70;99.90;;;;;;5065129;28;20015;-70
2022/10/29 07:22:28;;;;;;;;;;;12.70;99.90;;;;;;5055991;28;20020;-70
2022/10/29 07:24:53;;;;;;;;;;;12.80;99.90;;;;;;5039429;28;19948;-70
2022/10/29 07:27:19;;;;;;;;;;;12.80;99.90;;;;;;5043774;28;19913;-71
2022/10/29 07:29:44;;;;;;;;;;;12.80;99.90;;;;;;5056357;28;19928;-70
2022/10/29 07:32:10;;;;;;;;;;;12.80;99.90;;;;;;5034356;28;19912;-71
2022/10/29 07:34:35;;;;;;;;;;;12.90;99.90;;;;;;5067583;28;19912;-71
2022/10/29 07:37:01;;;;;;;;;;;12.90;99.90;;;;;;5070220;28;19912;-71
2022/10/29 07:39:26;;;;;;;;;;;12.90;99.90;;;;;;5062348;28;20059;-70
2022/10/29 07:41:52;;;;;;;;;;;13.00;99.90;;;;;;5063434;28;20008;-71
2022/10/29 07:44:17;;;;;;;;;;;13.10;99.90;;;;;;5067715;28;19913;-71
2022/10/29 07:46:43;;;;;;;;;;;13.20;99.90;;;;;;5067032;28;20338;-71
2022/10/29 07:49:09;;;;;;;;;;;13.20;99.90;;;;;;5058672;28;20312;-71
2022/10/29 07:51:34;;;;;;;;;;;13.30;99.90;;;;;;5060615;28;20304;-71
2022/10/29 07:54:00;;;;;;;;;;;13.30;99.90;;;;;;5066752;28;19909;-70
2022/10/29 07:56:25;;;;;;;;;;;13.40;99.90;;;;;;5069195;28;19915;-71
2022/10/29 07:58:51;;;;;;;;;;;13.50;99.90;;;;;;5054681;28;20455;-71
2022/10/29 08:01:16;;;;;;;;;;;13.60;99.90;;;;;;5068180;28;19912;-71
2022/10/29 08:03:42;;;;;;;;;;;13.70;99.90;;;;;;5046778;28;20307;-71
2022/10/29 08:06:07;;;;;;;;;;;13.80;99.90;;;;;;5049971;28;20338;-71
2022/10/29 08:08:33;;;;;;;;;;;13.90;99.90;;;;;;5064466;28;19917;-71
2022/10/29 08:11:00;;;;;;;;;;;14.00;99.90;;;;;;5063156;28;19923;-71
2022/10/29 08:13:25;;;;;;;;;;;14.10;99.90;;;;;;5066940;28;19913;-71
2022/10/29 08:15:51;;;;;;;;;;;14.30;99.90;;;;;;5067988;28;19912;-72
2022/10/29 08:18:17;;;;;;;;;;;14.40;99.90;;;;;;5067947;28;20215;-72
2022/10/29 08:20:42;;;;;;;;;;;14.50;99.90;;;;;;5043030;28;19927;-72
2022/10/29 08:23:08;;;;;;;;;;;14.60;99.90;;;;;;5063177;28;19917;-72
2022/10/29 08:25:37;;;;;;;;;;;14.70;99.90;;;;;;5071878;28;20310;-72
2022/10/29 08:28:03;;;;;;;;;;;14.70;99.90;;;;;;5055304;28;19971;-72
2022/10/29 08:30:30;;;;;;;;;;;14.70;99.90;;;;;;5060269;28;19917;-72
2022/10/29 08:32:55;;;;;;;;;;;14.80;99.90;;;;;;5053830;28;19909;-72
2022/10/29 08:35:21;;;;;;;;;;;14.80;99.90;;;;;;5066096;28;19909;-73
2022/10/29 08:37:46;;;;;;;;;;;14.90;99.90;;;;;;5066275;28;19921;-73
2022/10/29 08:40:21;;;;;;;;;;;15.10;99.90;;;;;;5055823;28;20200;-73
2022/10/29 08:43:00;;;;;;;;;;;15.20;99.90;;;;;;5057920;28;19913;-73
2022/10/29 08:45:42;;;;;;;;;;;15.30;99.90;;;;;;5021862;28;20008;-75
2022/10/29 08:48:18;;;;;;;;;;;15.40;99.90;;;;;;5053998;28;19924;-73
2022/10/29 08:50:47;;;;;;;;;;;15.50;99.90;;;;;;5047736;28;19908;-73
2022/10/29 08:53:15;;;;;;;;;;;15.60;99.90;;;;;;5042067;28;19928;-73
2022/10/29 08:55:41;;;;;;;;;;;15.60;99.90;;;;;;5049980;28;19913;-74
2022/10/29 08:58:26;;;;;;;;;;;15.60;99.90;;;;;;5054599;28;19928;-73
2022/10/29 09:00:54;;;;;;;;;;;15.60;99.90;;;;;;5046323;28;20006;-73
2022/10/29 09:03:20;;;;;;;;;;;15.70;99.90;;;;;;5057129;28;19999;-73
2022/10/29 09:06:15;;;;;;;;;;;15.70;99.90;;;;;;5045721;28;20051;-73
2022/10/29 09:09:07;;;;;;;;;;;15.70;99.90;;;;;;5029437;28;19919;-73
2022/10/29 09:11:35;;;;;;;;;;;15.70;99.90;;;;;;4957222;28;20002;-73
2022/10/29 09:14:01;;;;;;;;;;;15.90;99.90;;;;;;4956427;28;20298;-73
2022/10/29 09:16:32;;;;;;;;;;;16.00;99.90;;;;;;4964841;28;19925;-74
2022/10/29 09:19:03;;;;;;;;;;;16.20;99.90;;;;;;4968728;28;20434;-73
2022/10/29 09:21:36;;;;;;;;;;;16.20;99.90;;;;;;4969435;28;19918;-74
2022/10/29 09:24:24;;;;;;;;;;;16.30;99.90;;;;;;4973031;28;19918;-73
2022/10/29 09:26:59;;;;;;;;;;;16.40;99.90;;;;;;4941310;28;19918;-73
2022/10/29 09:29:28;;;;;;;;;;;16.50;99.90;;;;;;4971510;28;19922;-74
2022/10/29 09:32:04;;;;;;;;;;;16.60;99.90;;;;;;4965659;28;19911;-73
2022/10/29 09:34:30;;;;;;;;;;;16.70;99.90;;;;;;4969333;28;19937;-74
2022/10/29 09:36:56;;;;;;;;;;;16.80;99.90;;;;;;4966682;28;20735;-73
2022/10/29 09:39:26;;;;;;;;;;;16.80;99.90;;;;;;4951704;28;19954;-73
2022/10/29 09:41:53;;;;;;;;;;;16.90;99.90;;;;;;4958759;28;19919;-74
2022/10/29 09:44:23;;;;;;;;;;;17.00;99.90;;;;;;4968399;28;19929;-73
2022/10/29 09:47:05;;;;;;;;;;;17.00;99.90;;;;;;4940174;29;19958;-73
2022/10/29 09:49:50;;;;;;;;;;;17.00;99.90;;;;;;5048279;28;19909;-74
2022/10/29 09:52:21;;;;;;;;;;;17.00;99.90;;;;;;5050254;28;20329;-74
2022/10/29 09:54:48;;;;;;;;;;;17.10;99.90;;;;;;5044010;28;19978;-73
2022/10/29 09:57:19;;;;;;;;;;;17.10;99.90;;;;;;5040782;28;19916;-74
2022/10/29 09:59:55;;;;;;;;;;;17.20;99.90;;;;;;5053750;28;19925;-73
2022/10/29 10:02:47;;;;;;;;;;;17.20;99.90;;;;;;5059365;28;19917;-74
2022/10/29 10:05:12;;;;;;;;;;;17.20;99.90;;;;;;5055903;28;19916;-73
2022/10/29 10:07:39;;;;;;;;;;;17.30;99.90;;;;;;5044989;28;19921;-73
2022/10/29 10:10:21;;;;;;;;;;;17.40;99.90;;;;;;5056716;28;20259;-74
2022/10/29 10:12:47;;;;;;;;;;;17.40;99.90;;;;;;5014152;28;19917;-74
2022/10/29 10:15:27;;;;;;;;;;;17.60;99.90;;;;;;5069623;28;20003;-73
2022/10/29 10:17:53;;;;;;;;;;;17.70;99.90;;;;;;5055110;28;19917;-73
2022/10/29 10:20:30;;;;;;;;;;;17.80;99.90;;;;;;5065619;28;19954;-74
2022/10/29 10:22:56;;;;;;;;;;;17.90;99.90;;;;;;5053347;28;19955;-73
2022/10/29 10:25:38;;;;;;;;;;;17.90;99.90;;;;;;5051184;28;20688;-74
2022/10/29 10:28:14;;;;;;;;;;;17.90;99.90;;;;;;5058879;28;19919;-73
2022/10/29 10:30:41;;;;;;;;;;;18.00;99.90;;;;;;5038163;28;20603;-74
2022/10/29 10:33:20;;;;;;;;;;;18.10;99.90;;;;;;5056618;28;19917;-74
2022/10/29 10:35:45;;;;;;;;;;;18.30;99.90;;;;;;5053034;28;19921;-74
2022/10/29 10:38:13;;;;;;;;;;;18.30;99.90;;;;;;5063263;28;19919;-74
2022/10/29 10:40:40;;;;;;;;;;;18.40;99.90;;;;;;5052801;28;19932;-75
2022/10/29 10:43:16;;;;;;;;;;;18.40;99.90;;;;;;5064397;28;19964;-73
2022/10/29 10:45:42;;;;;;;;;;;18.40;99.90;;;;;;5073108;28;21637;-73
2022/10/29 10:48:09;;;;;;;;;;;18.50;99.90;;;;;;5067473;28;19920;-75
2022/10/29 10:50:35;;;;;;;;;;;18.60;99.90;;;;;;5044929;28;19913;-79
2022/10/29 10:53:03;;;;;;;;;;;18.60;99.90;;;;;;5069705;28;19979;-74
2022/10/29 10:55:28;;;;;;;;;;;18.70;99.90;;;;;;5071305;28;20152;-73
2022/10/29 10:57:57;;;;;;;;;;;18.90;99.90;;;;;;5069913;28;19913;-73
2022/10/29 11:00:22;;;;;;;;;;;19.00;99.90;;;;;;5071519;28;19924;-74
2022/10/29 11:02:48;;;;;;;;;;;19.10;99.90;;;;;;5053281;28;19924;-73
2022/10/29 11:05:16;;;;;;;;;;;19.20;99.90;;;;;;5030433;28;19999;-74
2022/10/29 11:07:45;;;;;;;;;;;19.20;99.90;;;;;;5065961;28;19927;-74
2022/10/29 11:10:12;;;;;;;;;;;19.30;99.90;;;;;;5048980;28;20291;-73
2022/10/29 11:12:45;;;;;;;;;;;19.50;99.90;;;;;;5049568;28;19916;-74
2022/10/29 11:15:10;;;;;;;;;;;19.60;99.90;;;;;;5054069;28;19917;-73
2022/10/29 11:17:52;;;;;;;;;;;19.80;99.90;;;;;;5048194;28;19916;-78
2022/10/29 11:20:20;;;;;;;;;;;19.80;99.90;;;;;;5057077;28;19916;-73
2022/10/29 11:22:51;;;;;;;;;;;19.90;99.90;;;;;;5029967;28;19913;-73
2022/10/29 11:25:17;;;;;;;;;;;19.90;99.90;;;;;;5037312;28;20059;-80
2022/10/29 11:27:45;;;;;;;;;;;19.90;99.90;;;;;;5035188;28;20007;-74
2022/10/29 11:30:13;;;;;;;;;;;20.00;99.90;;;;;;5053331;28;19913;-74
2022/10/29 11:32:51;;;;;;;;;;;20.20;99.90;;;;;;5055709;28;19924;-74
2022/10/29 11:38:30;;;;;;;;;;;20.30;99.90;;;;;;5061891;28;19919;-73
2022/10/29 11:41:10;;;;;;;;;;;20.20;99.90;;;;;;5064934;28;19917;-74
2022/10/29 11:43:36;;;;;;;;;;;20.10;99.90;;;;;;5045869;28;19963;-79
2022/10/29 11:46:04;;;;;;;;;;;19.90;99.90;;;;;;5055326;28;19916;-74
2022/10/29 11:48:44;;;;;;;;;;;19.90;99.90;;;;;;5055482;28;20027;-74
2022/10/29 11:51:19;;;;;;;;;;;19.80;99.90;;;;;;5057393;28;19913;-73
2022/10/29 11:53:57;;;;;;;;;;;19.90;99.90;;;;;;5055864;28;20304;-79
2022/10/29 11:56:25;;;;;;;;;;;19.90;99.90;;;;;;5047997;28;20259;-79
2022/10/29 11:58:56;;;;;;;;;;;19.90;99.90;;;;;;5038247;28;19921;-74
2022/10/29 12:01:44;;;;;;;;;;;19.90;99.90;;;;;;5026033;28;19921;-82
2022/10/29 12:04:10;;;;;;;;;;;19.90;99.90;;;;;;5031398;28;19972;-74
2022/10/29 12:06:35;;;;;;;;;;;19.90;99.90;;;;;;5038783;28;20320;-74
2022/10/29 12:09:00;;;;;;;;;;;19.90;99.90;;;;;;5047227;28;19916;-74
2022/10/29 12:11:26;;;;;;;;;;;19.90;99.90;;;;;;5045533;28;20374;-74
2022/10/29 12:13:57;;;;;;;;;;;19.90;99.90;;;;;;5035999;28;19971;-74
2022/10/29 12:16:27;;;;;;;;;;;20.00;99.90;;;;;;5015658;28;19917;-74
2022/10/29 12:19:09;;;;;;;;;;;20.00;99.90;;;;;;5041241;28;19916;-74
2022/10/29 12:21:34;;;;;;;;;;;20.00;99.90;;;;;;5042913;28;19959;-75
2022/10/29 12:24:15;;;;;;;;;;;20.10;99.90;;;;;;5034711;28;19913;-74
2022/10/29 12:26:47;;;;;;;;;;;20.10;99.90;;;;;;5025833;28;19917;-74
2022/10/29 12:29:31;;;;;;;;;;;20.20;99.90;;;;;;5033208;28;19952;-74
2022/10/29 12:32:09;;;;;;;;;;;20.20;99.90;;;;;;5018697;28;20356;-74
2022/10/29 12:34:34;;;;;;;;;;;20.40;99.90;;;;;;5033071;28;19914;-74
2022/10/29 12:37:06;;;;;;;;;;;20.50;99.90;;;;;;5035081;28;19913;-74
2022/10/29 12:39:35;;;;;;;;;;;20.60;99.90;;;;;;5035797;28;19909;-74
2022/10/29 12:42:04;;;;;;;;;;;20.70;99.90;;;;;;5036403;28;19919;-75
2022/10/29 12:44:37;;;;;;;;;;;20.60;99.90;;;;;;5036033;28;19924;-74
2022/10/29 12:47:10;;;;;;;;;;;20.70;99.90;;;;;;5031284;28;20231;-74
2022/10/29 12:49:41;;;;;;;;;;;20.70;99.90;;;;;;5041568;28;19912;-74
2022/10/29 12:52:15;;;;;;;;;;;20.70;99.90;;;;;;5036696;28;20455;-74
2022/10/29 12:54:42;;;;;;;;;;;20.80;99.90;;;;;;5038744;28;19913;-74
2022/10/29 12:57:11;;;;;;;;;;;21.00;99.90;;;;;;5033564;28;20004;-73
2022/10/29 12:59:36;;;;;;;;;;;21.30;99.90;;;;;;5054361;28;19925;-74
2022/10/29 13:02:14;;;;;;;;;;;21.40;99.90;;;;;;5039825;28;20055;-74
2022/10/29 13:05:00;;;;;;;;;;;21.50;99.90;;;;;;5052619;28;19913;-74
2022/10/29 13:07:25;;;;;;;;;;;21.60;99.90;;;;;;5058432;28;19920;-74
2022/10/29 13:10:11;;;;;;;;;;;21.60;99.90;;;;;;5060457;28;19913;-74
2022/10/29 13:12:55;;;;;;;;;;;21.60;99.90;;;;;;5058349;28;19999;-74
2022/10/29 13:15:22;;;;;;;;;;;21.60;99.90;;;;;;5047769;28;19931;-75
2022/10/29 13:17:48;;;;;;;;;;;21.70;99.90;;;;;;5047977;28;19928;-74
2022/10/29 13:20:33;;;;;;;;;;;21.70;99.90;;;;;;5060475;28;20023;-74
2022/10/29 13:22:59;;;;;;;;;;;21.60;99.90;;;;;;5034207;28;20212;-79
2022/10/29 13:25:35;;;;;;;;;;;21.50;99.90;;;;;;5053728;28;20254;-74
2022/10/29 13:28:20;;;;;;;;;;;21.50;99.90;;;;;;5027349;28;19920;-74
2022/10/29 13:30:49;;;;;;;;;;;21.50;99.90;;;;;;5027519;28;19938;-74
2022/10/29 13:33:43;;;;;;;;;;;21.40;99.90;;;;;;5053730;28;19909;-74
2022/10/29 13:36:15;;;;;;;;;;;21.50;99.90;;;;;;5035541;28;19944;-74
2022/10/29 13:38:43;;;;;;;;;;;21.50;99.90;;;;;;5045926;28;19909;-74
2022/10/29 13:41:13;;;;;;;;;;;21.50;99.90;;;;;;5047737;28;19917;-80
2022/10/29 13:43:40;;;;;;;;;;;21.40;99.90;;;;;;5057719;28;20282;-78
2022/10/29 13:46:12;;;;;;;;;;;21.40;99.90;;;;;;5040719;28;19913;-74
2022/10/29 13:48:38;;;;;;;;;;;21.30;99.90;;;;;;5039347;28;19916;-74
2022/10/29 13:51:06;;;;;;;;;;;21.30;99.90;;;;;;5051622;28;19917;-74
2022/10/29 13:53:37;;;;;;;;;;;21.20;99.90;;;;;;5064143;28;19939;-74
2022/10/29 13:56:07;;;;;;;;;;;21.20;99.90;;;;;;5055047;28;19963;-80
2022/10/29 13:58:34;;;;;;;;;;;21.10;99.90;;;;;;5050948;28;20210;-74
2022/10/29 14:01:01;;;;;;;;;;;21.00;99.90;;;;;;5047715;28;19956;-74
2022/10/29 14:03:34;;;;;;;;;;;20.90;99.90;;;;;;5043663;28;20019;-75
2022/10/29 14:06:17;;;;;;;;;;;20.90;99.90;;;;;;5054504;28;19959;-74
2022/10/29 14:09:07;;;;;;;;;;;20.90;99.90;;;;;;5044857;28;19921;-74
2022/10/29 14:11:38;;;;;;;;;;;20.80;99.90;;;;;;5047075;28;19924;-73
2022/10/29 14:14:05;;;;;;;;;;;20.70;99.90;;;;;;5040709;28;19917;-74
2022/10/29 14:16:32;;;;;;;;;;;20.60;99.90;;;;;;5040116;28;19909;-79
2022/10/29 14:19:10;;;;;;;;;;;20.50;99.90;;;;;;5042144;28;20300;-74
2022/10/29 14:21:37;;;;;;;;;;;20.50;99.90;;;;;;5030569;28;19913;-73
2022/10/29 14:24:06;;;;;;;;;;;20.30;99.90;;;;;;5036178;28;19971;-73
2022/10/29 14:26:36;;;;;;;;;;;20.30;99.90;;;;;;5037693;28;19953;-73
2022/10/29 14:29:20;;;;;;;;;;;20.30;99.90;;;;;;5037066;28;20212;-73